PWSweather.com
Personal Weather Stations
Station Observations
KOMOKA
Komoka Village, Komoka, ON N0L IRO

Komoka VillageKomoka, ON N0L IRO

Lat: 42.9542444, Lon: -81.4348861

Elevation: 805

Station Type: Davis Vantage Pro 2

www.komokaweather.com

High Low Average
Temperature 59.4°F15.2°C 42.3°F5.7°C 48.0°F8.9°C
Dew Point 46.9°F8.3°C 32.4°F0.2°C 37.4°F3.0°C
Winds 11.0 mph 17.7 kmh Calm Calm 4.0 mph N6.4 kmh N
Wind Gusts 29.0 mph46.7 kmh -- 12.0 mph19.3 kmh
Humidity 73% 61% 67%
Pressure 29.61 in1002.7 mb 29.46 in997.6 mb -
Precipitation 0.52 in13.2 mm - -
Hour Temp Dew Point Humidity Winds Wind Gusts Pressure Precip Precip Rate Daily Precip Total
12:06 AM 52.9°F11.6°C 41.4°F5.2°C 65% 3.0 mph N4.8 kmh N 7.0 mph11.3 kmh 29.61 in1002.7 mb 0.00 in0.0 mm 0.00 in0.0 mm 0.00 in0.0 mm
12:13 AM 53.1°F11.7°C 41.7°F5.4°C 65% 1.0 mph N1.6 kmh N 7.0 mph11.3 kmh 29.60 in1002.4 mb 0.00 in0.0 mm 0.00 in0.0 mm 0.00 in0.0 mm
12:20 AM 53.1°F11.7°C 41.5°F5.3°C 65% 1.0 mph N1.6 kmh N 7.0 mph11.3 kmh 29.60 in1002.4 mb 0.00 in0.0 mm 0.00 in0.0 mm 0.00 in0.0 mm
12:27 AM 53.1°F11.7°C 41.5°F5.3°C 65% 3.0 mph N4.8 kmh N 7.0 mph11.3 kmh 29.59 in1002.0 mb 0.00 in0.0 mm 0.00 in0.0 mm 0.00 in0.0 mm
12:34 AM 53.1°F11.7°C 41.5°F5.3°C 65% 1.0 mph N1.6 kmh N 4.0 mph6.4 kmh 29.59 in1002.0 mb 0.00 in0.0 mm 0.00 in0.0 mm 0.00 in0.0 mm
12:41 AM 53.8°F12.1°C 42.3°F5.7°C 65% 1.0 mph N1.6 kmh N 5.0 mph8.0 kmh 29.59 in1002.0 mb 0.00 in0.0 mm 0.00 in0.0 mm 0.00 in0.0 mm
12:48 AM 54.3°F12.4°C 42.4°F5.8°C 64% 1.0 mph N1.6 kmh N 5.0 mph8.0 kmh 29.58 in1001.7 mb 0.00 in0.0 mm 0.00 in0.0 mm 0.00 in0.0 mm
12:55 AM 54.3°F12.4°C 42.4°F5.8°C 64% 1.0 mph N1.6 kmh N 4.0 mph6.4 kmh 29.58 in1001.7 mb 0.00 in0.0 mm 0.00 in0.0 mm 0.00 in0.0 mm
01:02 AM 54.5°F12.5°C 42.6°F5.9°C 64% 1.0 mph N1.6 kmh N 4.0 mph6.4 kmh 29.58 in1001.7 mb 0.00 in0.0 mm 0.00 in0.0 mm 0.00 in0.0 mm
01:09 AM 55.0°F12.8°C 43.0°F6.1°C 64% 1.0 mph N1.6 kmh N 5.0 mph8.0 kmh 29.57 in1001.4 mb 0.00 in0.0 mm 0.00 in0.0 mm 0.00 in0.0 mm
01:16 AM 55.2°F12.9°C 43.0°F6.1°C 63% 1.0 mph N1.6 kmh N 5.0 mph8.0 kmh 29.57 in1001.4 mb 0.00 in0.0 mm 0.00 in0.0 mm 0.00 in0.0 mm
01:23 AM 55.2°F12.9°C 42.8°F6.0°C 63% 1.0 mph N1.6 kmh N 5.0 mph8.0 kmh 29.56 in1001.0 mb 0.00 in0.0 mm 0.00 in0.0 mm 0.00 in0.0 mm
01:30 AM 54.9°F12.7°C 43.3°F6.3°C 65% Calm Calm 1.0 mph1.6 kmh 29.56 in1001.0 mb 0.01 in0.3 mm 0.09 in2.3 mm 0.01 in0.3 mm
01:37 AM 53.8°F12.1°C 43.5°F6.4°C 68% Calm Calm 1.0 mph1.6 kmh 29.55 in1000.7 mb 0.01 in0.3 mm 0.00 in0.0 mm 0.01 in0.3 mm
01:44 AM 53.1°F11.7°C 42.8°F6.0°C 68% Calm Calm -- 29.55 in1000.7 mb 0.01 in0.3 mm 0.00 in0.0 mm 0.01 in0.3 mm
01:51 AM 52.9°F11.6°C 42.4°F5.8°C 68% Calm Calm -- 29.54 in1000.3 mb 0.01 in0.3 mm 0.00 in0.0 mm 0.01 in0.3 mm
01:58 AM 52.5°F11.4°C 42.3°F5.7°C 68% Calm Calm -- 29.54 in1000.3 mb 0.01 in0.3 mm 0.00 in0.0 mm 0.01 in0.3 mm
02:05 AM 52.9°F11.6°C 43.0°F6.1°C 69% Calm Calm -- 29.54 in1000.3 mb 0.01 in0.3 mm 0.00 in0.0 mm 0.01 in0.3 mm
02:12 AM 53.1°F11.7°C 43.2°F6.2°C 69% Calm Calm -- 29.54 in1000.3 mb 0.01 in0.3 mm 0.00 in0.0 mm 0.01 in0.3 mm
02:27 AM 54.1°F12.3°C 44.2°F6.8°C 69% Calm Calm -- 29.53 in1000.0 mb 0.00 in0.0 mm 0.00 in0.0 mm 0.01 in0.3 mm
02:59 AM 59.2°F15.1°C 45.7°F7.6°C 61% 1.0 mph N1.6 kmh N 3.0 mph4.8 kmh 29.50 in999.0 mb 0.00 in0.0 mm 0.00 in0.0 mm 0.01 in0.3 mm
03:06 AM 59.4°F15.2°C 45.9°F7.7°C 61% Calm Calm 3.0 mph4.8 kmh 29.50 in999.0 mb 0.00 in0.0 mm 0.00 in0.0 mm 0.01 in0.3 mm
03:13 AM 59.4°F15.2°C 46.4°F8.0°C 62% Calm Calm 4.0 mph6.4 kmh 29.50 in999.0 mb 0.00 in0.0 mm 0.00 in0.0 mm 0.01 in0.3 mm
03:20 AM 59.2°F15.1°C 46.2°F7.9°C 62% Calm Calm 4.0 mph6.4 kmh 29.50 in999.0 mb 0.00 in0.0 mm 0.00 in0.0 mm 0.01 in0.3 mm
03:27 AM 59.0°F15.0°C 46.4°F8.0°C 63% Calm Calm 5.0 mph8.0 kmh 29.50 in999.0 mb 0.00 in0.0 mm 0.00 in0.0 mm 0.01 in0.3 mm
03:34 AM 58.8°F14.9°C 46.6°F8.1°C 64% 3.0 mph N4.8 kmh N 13.0 mph20.9 kmh 29.50 in999.0 mb 0.02 in0.5 mm 0.17 in4.3 mm 0.03 in0.8 mm
03:41 AM 57.9°F14.4°C 46.9°F8.3°C 67% 4.0 mph N6.4 kmh N 13.0 mph20.9 kmh 29.49 in998.6 mb 0.05 in1.3 mm 0.26 in6.6 mm 0.06 in1.5 mm
03:48 AM 57.7°F14.3°C 46.8°F8.2°C 67% 3.0 mph N4.8 kmh N 8.0 mph12.9 kmh 29.49 in998.6 mb 0.06 in1.5 mm 0.09 in2.3 mm 0.06 in1.5 mm
03:55 AM 56.5°F13.6°C 44.8°F7.1°C 65% 7.0 mph N11.3 kmh N 19.0 mph30.6 kmh 29.52 in999.7 mb 0.06 in1.5 mm 0.00 in0.0 mm 0.07 in1.8 mm
04:02 AM 54.7°F12.6°C 43.5°F6.4°C 66% 7.0 mph N11.3 kmh N 19.0 mph30.6 kmh 29.53 in1000.0 mb 0.11 in2.8 mm 0.06 in1.5 mm 0.12 in3.0 mm
04:09 AM 54.0°F12.2°C 43.7°F6.5°C 68% 4.0 mph N6.4 kmh N 12.0 mph19.3 kmh 29.53 in1000.0 mb 0.13 in3.3 mm 0.17 in4.3 mm 0.13 in3.3 mm
04:16 AM 53.8°F12.1°C 43.5°F6.4°C 68% 4.0 mph N6.4 kmh N 9.0 mph14.5 kmh 29.54 in1000.3 mb 0.13 in3.3 mm 0.00 in0.0 mm 0.13 in3.3 mm
04:23 AM 53.6°F12.0°C 43.3°F6.3°C 68% 3.0 mph N4.8 kmh N 9.0 mph14.5 kmh 29.52 in999.7 mb 0.13 in3.3 mm 0.00 in0.0 mm 0.13 in3.3 mm
04:30 AM 53.4°F11.9°C 43.2°F6.2°C 68% 3.0 mph N4.8 kmh N 5.0 mph8.0 kmh 29.52 in999.7 mb 0.13 in3.3 mm 0.00 in0.0 mm 0.13 in3.3 mm
04:37 AM 53.4°F11.9°C 43.2°F6.2°C 68% 3.0 mph N4.8 kmh N 7.0 mph11.3 kmh 29.52 in999.7 mb 0.09 in2.3 mm 0.00 in0.0 mm 0.13 in3.3 mm
04:44 AM 53.4°F11.9°C 43.5°F6.4°C 69% 1.0 mph N1.6 kmh N 5.0 mph8.0 kmh 29.53 in1000.0 mb 0.08 in2.0 mm 0.00 in0.0 mm 0.13 in3.3 mm
04:51 AM 53.2°F11.8°C 43.3°F6.3°C 69% 1.0 mph N1.6 kmh N 4.0 mph6.4 kmh 29.53 in1000.0 mb 0.07 in1.8 mm 0.00 in0.0 mm 0.13 in3.3 mm
04:58 AM 53.2°F11.8°C 43.3°F6.3°C 69% 1.0 mph N1.6 kmh N 5.0 mph8.0 kmh 29.53 in1000.0 mb 0.06 in1.5 mm 0.00 in0.0 mm 0.14 in3.6 mm
05:05 AM 52.9°F11.6°C 43.0°F6.1°C 69% 3.0 mph N4.8 kmh N 12.0 mph19.3 kmh 29.52 in999.7 mb 0.02 in0.5 mm 0.00 in0.0 mm 0.15 in3.8 mm
05:12 AM 52.5°F11.4°C 42.3°F5.7°C 68% 4.0 mph N6.4 kmh N 12.0 mph19.3 kmh 29.53 in1000.0 mb 0.02 in0.5 mm 0.00 in0.0 mm 0.16 in4.1 mm
05:19 AM 52.3°F11.3°C 41.7°F5.4°C 67% 3.0 mph N4.8 kmh N 7.0 mph11.3 kmh 29.53 in1000.0 mb 0.03 in0.8 mm 0.09 in2.3 mm 0.17 in4.3 mm
05:26 AM 51.8°F11.0°C 40.8°F4.9°C 66% 4.0 mph N6.4 kmh N 8.0 mph12.9 kmh 29.52 in999.7 mb 0.04 in1.0 mm 0.09 in2.3 mm 0.17 in4.3 mm
05:33 AM 51.4°F10.8°C 40.5°F4.7°C 66% 3.0 mph N4.8 kmh N 8.0 mph12.9 kmh 29.51 in999.3 mb 0.05 in1.3 mm 0.09 in2.3 mm 0.18 in4.6 mm
05:40 AM 51.1°F10.6°C 40.5°F4.7°C 67% 3.0 mph N4.8 kmh N 4.0 mph6.4 kmh 29.51 in999.3 mb 0.05 in1.3 mm 0.00 in0.0 mm 0.18 in4.6 mm
05:47 AM 50.7°F10.4°C 40.3°F4.6°C 67% 1.0 mph N1.6 kmh N 4.0 mph6.4 kmh 29.51 in999.3 mb 0.06 in1.5 mm 0.09 in2.3 mm 0.19 in4.8 mm
05:54 AM 50.5°F10.3°C 40.5°F4.7°C 68% 1.0 mph N1.6 kmh N 4.0 mph6.4 kmh 29.50 in999.0 mb 0.05 in1.3 mm 0.00 in0.0 mm 0.19 in4.8 mm
06:01 AM 50.4°F10.2°C 40.3°F4.6°C 68% 1.0 mph N1.6 kmh N 4.0 mph6.4 kmh 29.50 in999.0 mb 0.06 in1.5 mm 0.01 in0.3 mm 0.20 in5.1 mm
06:08 AM 50.4°F10.2°C 40.3°F4.6°C 68% 1.0 mph N1.6 kmh N 5.0 mph8.0 kmh 29.50 in999.0 mb 0.06 in1.5 mm 0.00 in0.0 mm 0.20 in5.1 mm
06:15 AM 50.2°F10.1°C 40.5°F4.7°C 69% 3.0 mph N4.8 kmh N 7.0 mph11.3 kmh 29.50 in999.0 mb 0.06 in1.5 mm 0.00 in0.0 mm 0.21 in5.3 mm
06:22 AM 50.2°F10.1°C 40.3°F4.6°C 69% 3.0 mph N4.8 kmh N 8.0 mph12.9 kmh 29.49 in998.6 mb 0.05 in1.3 mm 0.00 in0.0 mm 0.22 in5.6 mm
06:29 AM 49.8°F9.9°C 40.1°F4.5°C 69% 3.0 mph N4.8 kmh N 8.0 mph12.9 kmh 29.50 in999.0 mb 0.05 in1.3 mm 0.00 in0.0 mm 0.24 in6.1 mm
06:36 AM 49.8°F9.9°C 40.8°F4.9°C 71% 1.0 mph N1.6 kmh N 4.0 mph6.4 kmh 29.51 in999.3 mb 0.06 in1.5 mm 0.09 in2.3 mm 0.24 in6.1 mm
06:43 AM 49.6°F9.8°C 40.6°F4.8°C 71% 1.0 mph N1.6 kmh N 13.0 mph20.9 kmh 29.52 in999.7 mb 0.07 in1.8 mm 0.09 in2.3 mm 0.25 in6.4 mm
06:50 AM 49.6°F9.8°C 41.0°F5.0°C 72% 3.0 mph N4.8 kmh N 13.0 mph20.9 kmh 29.51 in999.3 mb 0.06 in1.5 mm 0.00 in0.0 mm 0.26 in6.6 mm
06:57 AM 49.5°F9.7°C 41.2°F5.1°C 73% 1.0 mph N1.6 kmh N 5.0 mph8.0 kmh 29.51 in999.3 mb 0.08 in2.0 mm 0.17 in4.3 mm 0.28 in7.1 mm
07:04 AM 49.5°F9.7°C 41.2°F5.1°C 73% 1.0 mph N1.6 kmh N 13.0 mph20.9 kmh 29.51 in999.3 mb 0.08 in2.0 mm 0.00 in0.0 mm 0.28 in7.1 mm
07:11 AM 49.5°F9.7°C 41.2°F5.1°C 73% 4.0 mph N6.4 kmh N 13.0 mph20.9 kmh 29.50 in999.0 mb 0.08 in2.0 mm 0.00 in0.0 mm 0.28 in7.1 mm
07:18 AM 49.3°F9.6°C 41.0°F5.0°C 73% 3.0 mph N4.8 kmh N 8.0 mph12.9 kmh 29.49 in998.6 mb 0.08 in2.0 mm 0.00 in0.0 mm 0.29 in7.4 mm
07:25 AM 49.3°F9.6°C 41.0°F5.0°C 73% 3.0 mph N4.8 kmh N 8.0 mph12.9 kmh 29.49 in998.6 mb 0.06 in1.5 mm 0.00 in0.0 mm 0.32 in8.1 mm
07:32 AM 49.3°F9.6°C 41.0°F5.0°C 73% 3.0 mph N4.8 kmh N 7.0 mph11.3 kmh 29.49 in998.6 mb 0.09 in2.3 mm 0.26 in6.6 mm 0.32 in8.1 mm
07:39 AM 48.9°F9.4°C 40.3°F4.6°C 72% 3.0 mph N4.8 kmh N 9.0 mph14.5 kmh 29.49 in998.6 mb 0.08 in2.0 mm 0.00 in0.0 mm 0.32 in8.1 mm
07:46 AM 48.6°F9.2°C 38.1°F3.4°C 67% 4.0 mph N6.4 kmh N 9.0 mph14.5 kmh 29.47 in998.0 mb 0.07 in1.8 mm 0.00 in0.0 mm 0.32 in8.1 mm
07:53 AM 47.8°F8.8°C 37.0°F2.8°C 66% 3.0 mph N4.8 kmh N 9.0 mph14.5 kmh 29.46 in997.6 mb 0.06 in1.5 mm 0.00 in0.0 mm 0.32 in8.1 mm
08:00 AM 47.7°F8.7°C 36.9°F2.7°C 66% 3.0 mph N4.8 kmh N 9.0 mph14.5 kmh 29.47 in998.0 mb 0.05 in1.3 mm 0.00 in0.0 mm 0.32 in8.1 mm
08:07 AM 47.1°F8.4°C 36.5°F2.5°C 66% 4.0 mph N6.4 kmh N 11.0 mph17.7 kmh 29.47 in998.0 mb 0.04 in1.0 mm 0.00 in0.0 mm 0.32 in8.1 mm
08:14 AM 47.1°F8.4°C 36.3°F2.4°C 66% 5.0 mph N8.0 kmh N 12.0 mph19.3 kmh 29.48 in998.3 mb 0.03 in0.8 mm 0.00 in0.0 mm 0.32 in8.1 mm
08:21 AM 46.9°F8.3°C 35.8°F2.1°C 65% 4.0 mph N6.4 kmh N 9.0 mph14.5 kmh 29.48 in998.3 mb 0.03 in0.8 mm 0.00 in0.0 mm 0.32 in8.1 mm
08:28 AM 46.9°F8.3°C 36.1°F2.3°C 66% 4.0 mph N6.4 kmh N 8.0 mph12.9 kmh 29.48 in998.3 mb 0.00 in0.0 mm 0.00 in0.0 mm 0.32 in8.1 mm
08:35 AM 46.9°F8.3°C 36.1°F2.3°C 66% 3.0 mph N4.8 kmh N 7.0 mph11.3 kmh 29.50 in999.0 mb 0.00 in0.0 mm 0.00 in0.0 mm 0.32 in8.1 mm
08:42 AM 46.8°F8.2°C 36.5°F2.5°C 67% 3.0 mph N4.8 kmh N 7.0 mph11.3 kmh 29.48 in998.3 mb 0.00 in0.0 mm 0.00 in0.0 mm 0.32 in8.1 mm
08:49 AM 46.8°F8.2°C 36.0°F2.2°C 66% 3.0 mph N4.8 kmh N 8.0 mph12.9 kmh 29.49 in998.6 mb 0.00 in0.0 mm 0.00 in0.0 mm 0.32 in8.1 mm
08:56 AM 46.9°F8.3°C 36.1°F2.3°C 66% 3.0 mph N4.8 kmh N 9.0 mph14.5 kmh 29.49 in998.6 mb 0.00 in0.0 mm 0.00 in0.0 mm 0.32 in8.1 mm
09:03 AM 46.9°F8.3°C 36.1°F2.3°C 66% 3.0 mph N4.8 kmh N 8.0 mph12.9 kmh 29.51 in999.3 mb 0.00 in0.0 mm 0.00 in0.0 mm 0.32 in8.1 mm
09:10 AM 46.9°F8.3°C 36.1°F2.3°C 66% 3.0 mph N4.8 kmh N 8.0 mph12.9 kmh 29.50 in999.0 mb 0.00 in0.0 mm 0.00 in0.0 mm 0.32 in8.1 mm
09:17 AM 47.1°F8.4°C 36.7°F2.6°C 67% 3.0 mph N4.8 kmh N 8.0 mph12.9 kmh 29.50 in999.0 mb 0.00 in0.0 mm 0.00 in0.0 mm 0.32 in8.1 mm
09:24 AM 47.1°F8.4°C 36.7°F2.6°C 67% 1.0 mph N1.6 kmh N 9.0 mph14.5 kmh 29.50 in999.0 mb 0.00 in0.0 mm 0.00 in0.0 mm 0.32 in8.1 mm
09:31 AM 47.1°F8.4°C 36.7°F2.6°C 67% 3.0 mph N4.8 kmh N 7.0 mph11.3 kmh 29.51 in999.3 mb 0.00 in0.0 mm 0.00 in0.0 mm 0.32 in8.1 mm
09:38 AM 46.9°F8.3°C 36.5°F2.5°C 67% 3.0 mph N4.8 kmh N 7.0 mph11.3 kmh 29.51 in999.3 mb 0.00 in0.0 mm 0.00 in0.0 mm 0.32 in8.1 mm
09:45 AM 46.8°F8.2°C 36.5°F2.5°C 67% 3.0 mph N4.8 kmh N 8.0 mph12.9 kmh 29.52 in999.7 mb 0.00 in0.0 mm 0.00 in0.0 mm 0.32 in8.1 mm
09:52 AM 46.6°F8.1°C 36.1°F2.3°C 67% 3.0 mph N4.8 kmh N 8.0 mph12.9 kmh 29.51 in999.3 mb 0.00 in0.0 mm 0.00 in0.0 mm 0.32 in8.1 mm
09:59 AM 46.6°F8.1°C 36.1°F2.3°C 67% 1.0 mph N1.6 kmh N 8.0 mph12.9 kmh 29.50 in999.0 mb 0.00 in0.0 mm 0.00 in0.0 mm 0.32 in8.1 mm
10:06 AM 46.4°F8.0°C 35.6°F2.0°C 66% 3.0 mph N4.8 kmh N 13.0 mph20.9 kmh 29.50 in999.0 mb 0.00 in0.0 mm 0.00 in0.0 mm 0.32 in8.1 mm
10:13 AM 46.6°F8.1°C 35.8°F2.1°C 66% 4.0 mph N6.4 kmh N 13.0 mph20.9 kmh 29.50 in999.0 mb 0.00 in0.0 mm 0.00 in0.0 mm 0.32 in8.1 mm
10:20 AM 46.6°F8.1°C 35.4°F1.9°C 65% 4.0 mph N6.4 kmh N 11.0 mph17.7 kmh 29.51 in999.3 mb 0.00 in0.0 mm 0.00 in0.0 mm 0.32 in8.1 mm
10:27 AM 46.6°F8.1°C 35.4°F1.9°C 65% 4.0 mph N6.4 kmh N 9.0 mph14.5 kmh 29.50 in999.0 mb 0.00 in0.0 mm 0.00 in0.0 mm 0.32 in8.1 mm
10:34 AM 46.6°F8.1°C 35.1°F1.7°C 64% 3.0 mph N4.8 kmh N 9.0 mph14.5 kmh 29.50 in999.0 mb 0.00 in0.0 mm 0.00 in0.0 mm 0.32 in8.1 mm
10:41 AM 46.9°F8.3°C 35.4°F1.9°C 64% 3.0 mph N4.8 kmh N 9.0 mph14.5 kmh 29.50 in999.0 mb 0.00 in0.0 mm 0.00 in0.0 mm 0.32 in8.1 mm
10:48 AM 47.1°F8.4°C 35.6°F2.0°C 64% 3.0 mph N4.8 kmh N 9.0 mph14.5 kmh 29.50 in999.0 mb 0.00 in0.0 mm 0.00 in0.0 mm 0.32 in8.1 mm
10:55 AM 47.1°F8.4°C 35.1°F1.7°C 63% 3.0 mph N4.8 kmh N 8.0 mph12.9 kmh 29.50 in999.0 mb 0.00 in0.0 mm 0.00 in0.0 mm 0.32 in8.1 mm
11:02 AM 47.1°F8.4°C 35.2°F1.8°C 63% 3.0 mph N4.8 kmh N 8.0 mph12.9 kmh 29.50 in999.0 mb 0.00 in0.0 mm 0.00 in0.0 mm 0.32 in8.1 mm
11:09 AM 47.1°F8.4°C 35.2°F1.8°C 63% 1.0 mph N1.6 kmh N 8.0 mph12.9 kmh 29.50 in999.0 mb 0.00 in0.0 mm 0.00 in0.0 mm 0.32 in8.1 mm
11:16 AM 47.1°F8.4°C 35.2°F1.8°C 63% 1.0 mph N1.6 kmh N 4.0 mph6.4 kmh 29.50 in999.0 mb 0.00 in0.0 mm 0.00 in0.0 mm 0.32 in8.1 mm
11:23 AM 47.7°F8.7°C 36.0°F2.2°C 64% 1.0 mph N1.6 kmh N 5.0 mph8.0 kmh 29.50 in999.0 mb 0.00 in0.0 mm 0.00 in0.0 mm 0.32 in8.1 mm
11:30 AM 47.7°F8.7°C 35.2°F1.8°C 62% 1.0 mph N1.6 kmh N 4.0 mph6.4 kmh 29.50 in999.0 mb 0.00 in0.0 mm 0.00 in0.0 mm 0.32 in8.1 mm
11:37 AM 47.8°F8.8°C 35.8°F2.1°C 63% 1.0 mph N1.6 kmh N 4.0 mph6.4 kmh 29.49 in998.6 mb 0.00 in0.0 mm 0.00 in0.0 mm 0.32 in8.1 mm
11:44 AM 48.4°F9.1°C 36.7°F2.6°C 64% 1.0 mph N1.6 kmh N 5.0 mph8.0 kmh 29.49 in998.6 mb 0.00 in0.0 mm 0.00 in0.0 mm 0.32 in8.1 mm
11:51 AM 48.2°F9.0°C 36.1°F2.3°C 63% 1.0 mph N1.6 kmh N 7.0 mph11.3 kmh 29.49 in998.6 mb 0.00 in0.0 mm 0.00 in0.0 mm 0.32 in8.1 mm
11:58 AM 47.8°F8.8°C 35.4°F1.9°C 62% 1.0 mph N1.6 kmh N 5.0 mph8.0 kmh 29.49 in998.6 mb 0.00 in0.0 mm 0.00 in0.0 mm 0.32 in8.1 mm
12:05 PM 47.5°F8.6°C 35.1°F1.7°C 62% 3.0 mph N4.8 kmh N 9.0 mph14.5 kmh 29.49 in998.6 mb 0.00 in0.0 mm 0.00 in0.0 mm 0.32 in8.1 mm
12:12 PM 47.1°F8.4°C 34.3°F1.3°C 61% 5.0 mph N8.0 kmh N 15.0 mph24.1 kmh 29.49 in998.6 mb 0.00 in0.0 mm 0.00 in0.0 mm 0.32 in8.1 mm
12:19 PM 47.1°F8.4°C 34.7°F1.5°C 62% 5.0 mph N8.0 kmh N 13.0 mph20.9 kmh 29.49 in998.6 mb 0.00 in0.0 mm 0.00 in0.0 mm 0.32 in8.1 mm
12:26 PM 47.1°F8.4°C 34.7°F1.5°C 62% 4.0 mph N6.4 kmh N 11.0 mph17.7 kmh 29.49 in998.6 mb 0.00 in0.0 mm 0.00 in0.0 mm 0.32 in8.1 mm
12:33 PM 46.9°F8.3°C 34.5°F1.4°C 62% 4.0 mph N6.4 kmh N 11.0 mph17.7 kmh 29.49 in998.6 mb 0.00 in0.0 mm 0.00 in0.0 mm 0.32 in8.1 mm
12:51 PM 46.9°F8.3°C 35.4°F1.9°C 64% 4.0 mph N6.4 kmh N 9.0 mph14.5 kmh 29.49 in998.6 mb 0.00 in0.0 mm 0.00 in0.0 mm 0.32 in8.1 mm
12:57 PM 46.8°F8.2°C 35.2°F1.8°C 64% 4.0 mph N6.4 kmh N 9.0 mph14.5 kmh 29.48 in998.3 mb 0.00 in0.0 mm 0.00 in0.0 mm 0.32 in8.1 mm
01:04 PM 46.6°F8.1°C 35.4°F1.9°C 65% 4.0 mph N6.4 kmh N 9.0 mph14.5 kmh 29.48 in998.3 mb 0.00 in0.0 mm 0.00 in0.0 mm 0.32 in8.1 mm
01:11 PM 46.6°F8.1°C 35.4°F1.9°C 65% 3.0 mph N4.8 kmh N 8.0 mph12.9 kmh 29.48 in998.3 mb 0.00 in0.0 mm 0.00 in0.0 mm 0.32 in8.1 mm
01:18 PM 46.6°F8.1°C 35.4°F1.9°C 65% 3.0 mph N4.8 kmh N 8.0 mph12.9 kmh 29.48 in998.3 mb 0.00 in0.0 mm 0.00 in0.0 mm 0.32 in8.1 mm
01:25 PM 46.9°F8.3°C 35.8°F2.1°C 65% 3.0 mph N4.8 kmh N 9.0 mph14.5 kmh 29.48 in998.3 mb 0.00 in0.0 mm 0.00 in0.0 mm 0.32 in8.1 mm
01:32 PM 47.1°F8.4°C 36.0°F2.2°C 65% 3.0 mph N4.8 kmh N 7.0 mph11.3 kmh 29.47 in998.0 mb 0.00 in0.0 mm 0.00 in0.0 mm 0.32 in8.1 mm
01:39 PM 47.1°F8.4°C 36.3°F2.4°C 66% 3.0 mph N4.8 kmh N 7.0 mph11.3 kmh 29.47 in998.0 mb 0.00 in0.0 mm 0.00 in0.0 mm 0.32 in8.1 mm
01:46 PM 46.9°F8.3°C 36.5°F2.5°C 67% 1.0 mph N1.6 kmh N 4.0 mph6.4 kmh 29.47 in998.0 mb 0.00 in0.0 mm 0.00 in0.0 mm 0.32 in8.1 mm
01:53 PM 46.4°F8.0°C 36.3°F2.4°C 68% 1.0 mph N1.6 kmh N 4.0 mph6.4 kmh 29.47 in998.0 mb 0.00 in0.0 mm 0.00 in0.0 mm 0.32 in8.1 mm
02:00 PM 46.6°F8.1°C 36.5°F2.5°C 68% Calm Calm 3.0 mph4.8 kmh 29.46 in997.6 mb 0.00 in0.0 mm 0.00 in0.0 mm 0.32 in8.1 mm
02:07 PM 46.9°F8.3°C 36.5°F2.5°C 67% 1.0 mph N1.6 kmh N 5.0 mph8.0 kmh 29.46 in997.6 mb 0.00 in0.0 mm 0.00 in0.0 mm 0.32 in8.1 mm
02:14 PM 47.1°F8.4°C 36.9°F2.7°C 67% 1.0 mph N1.6 kmh N 5.0 mph8.0 kmh 29.46 in997.6 mb 0.00 in0.0 mm 0.00 in0.0 mm 0.32 in8.1 mm
02:21 PM 47.1°F8.4°C 36.5°F2.5°C 66% 4.0 mph N6.4 kmh N 12.0 mph19.3 kmh 29.46 in997.6 mb 0.00 in0.0 mm 0.00 in0.0 mm 0.32 in8.1 mm
02:28 PM 47.3°F8.5°C 36.5°F2.5°C 66% 5.0 mph N8.0 kmh N 12.0 mph19.3 kmh 29.46 in997.6 mb 0.00 in0.0 mm 0.00 in0.0 mm 0.32 in8.1 mm
02:35 PM 47.1°F8.4°C 36.5°F2.5°C 66% 4.0 mph N6.4 kmh N 12.0 mph19.3 kmh 29.46 in997.6 mb 0.00 in0.0 mm 0.00 in0.0 mm 0.32 in8.1 mm
02:42 PM 47.1°F8.4°C 36.7°F2.6°C 67% 4.0 mph N6.4 kmh N 12.0 mph19.3 kmh 29.46 in997.6 mb 0.00 in0.0 mm 0.00 in0.0 mm 0.32 in8.1 mm
02:49 PM 46.9°F8.3°C 36.7°F2.6°C 67% 5.0 mph N8.0 kmh N 15.0 mph24.1 kmh 29.46 in997.6 mb 0.00 in0.0 mm 0.00 in0.0 mm 0.32 in8.1 mm
02:56 PM 47.1°F8.4°C 37.0°F2.8°C 68% 5.0 mph N8.0 kmh N 15.0 mph24.1 kmh 29.46 in997.6 mb 0.00 in0.0 mm 0.00 in0.0 mm 0.32 in8.1 mm
03:03 PM 47.1°F8.4°C 37.2°F2.9°C 68% 4.0 mph N6.4 kmh N 15.0 mph24.1 kmh 29.46 in997.6 mb 0.00 in0.0 mm 0.00 in0.0 mm 0.32 in8.1 mm
03:10 PM 47.7°F8.7°C 37.6°F3.1°C 68% 4.0 mph N6.4 kmh N 15.0 mph24.1 kmh 29.46 in997.6 mb 0.00 in0.0 mm 0.00 in0.0 mm 0.32 in8.1 mm
03:17 PM 47.8°F8.8°C 37.8°F3.2°C 68% 3.0 mph N4.8 kmh N 8.0 mph12.9 kmh 29.46 in997.6 mb 0.00 in0.0 mm 0.00 in0.0 mm 0.32 in8.1 mm
03:24 PM 48.6°F9.2°C 38.5°F3.6°C 68% 4.0 mph N6.4 kmh N 9.0 mph14.5 kmh 29.46 in997.6 mb 0.00 in0.0 mm 0.00 in0.0 mm 0.32 in8.1 mm
03:31 PM 48.9°F9.4°C 38.1°F3.4°C 66% 5.0 mph N8.0 kmh N 15.0 mph24.1 kmh 29.46 in997.6 mb 0.00 in0.0 mm 0.00 in0.0 mm 0.32 in8.1 mm
03:38 PM 48.9°F9.4°C 38.1°F3.4°C 66% 5.0 mph N8.0 kmh N 15.0 mph24.1 kmh 29.46 in997.6 mb 0.00 in0.0 mm 0.00 in0.0 mm 0.32 in8.1 mm
03:45 PM 48.9°F9.4°C 37.8°F3.2°C 65% 5.0 mph N8.0 kmh N 13.0 mph20.9 kmh 29.46 in997.6 mb 0.00 in0.0 mm 0.00 in0.0 mm 0.32 in8.1 mm
03:52 PM 48.7°F9.3°C 37.4°F3.0°C 65% 5.0 mph N8.0 kmh N 15.0 mph24.1 kmh 29.46 in997.6 mb 0.00 in0.0 mm 0.00 in0.0 mm 0.32 in8.1 mm
03:59 PM 48.6°F9.2°C 37.4°F3.0°C 65% 7.0 mph N11.3 kmh N 16.0 mph25.7 kmh 29.46 in997.6 mb 0.00 in0.0 mm 0.00 in0.0 mm 0.32 in8.1 mm
04:06 PM 48.4°F9.1°C 36.9°F2.7°C 64% 5.0 mph N8.0 kmh N 16.0 mph25.7 kmh 29.46 in997.6 mb 0.00 in0.0 mm 0.00 in0.0 mm 0.32 in8.1 mm
04:13 PM 48.4°F9.1°C 36.9°F2.7°C 64% 4.0 mph N6.4 kmh N 9.0 mph14.5 kmh 29.46 in997.6 mb 0.00 in0.0 mm 0.00 in0.0 mm 0.32 in8.1 mm
04:20 PM 48.4°F9.1°C 36.7°F2.6°C 64% 4.0 mph N6.4 kmh N 12.0 mph19.3 kmh 29.46 in997.6 mb 0.00 in0.0 mm 0.00 in0.0 mm 0.32 in8.1 mm
04:27 PM 48.4°F9.1°C 36.7°F2.6°C 64% 5.0 mph N8.0 kmh N 12.0 mph19.3 kmh 29.47 in998.0 mb 0.00 in0.0 mm 0.00 in0.0 mm 0.32 in8.1 mm
04:34 PM 48.4°F9.1°C 36.7°F2.6°C 64% 5.0 mph N8.0 kmh N 12.0 mph19.3 kmh 29.47 in998.0 mb 0.00 in0.0 mm 0.00 in0.0 mm 0.32 in8.1 mm
04:41 PM 48.2°F9.0°C 37.0°F2.8°C 65% 5.0 mph N8.0 kmh N 13.0 mph20.9 kmh 29.47 in998.0 mb 0.00 in0.0 mm 0.00 in0.0 mm 0.32 in8.1 mm
04:48 PM 47.8°F8.8°C 37.0°F2.8°C 66% 5.0 mph N8.0 kmh N 13.0 mph20.9 kmh 29.47 in998.0 mb 0.00 in0.0 mm 0.00 in0.0 mm 0.32 in8.1 mm
04:55 PM 47.5°F8.6°C 37.4°F3.0°C 68% 4.0 mph N6.4 kmh N 12.0 mph19.3 kmh 29.47 in998.0 mb 0.02 in0.5 mm 0.17 in4.3 mm 0.34 in8.6 mm
05:02 PM 47.1°F8.4°C 37.4°F3.0°C 69% 3.0 mph N4.8 kmh N 8.0 mph12.9 kmh 29.47 in998.0 mb 0.02 in0.5 mm 0.00 in0.0 mm 0.35 in8.9 mm
05:09 PM 46.9°F8.3°C 37.4°F3.0°C 69% 3.0 mph N4.8 kmh N 7.0 mph11.3 kmh 29.47 in998.0 mb 0.05 in1.3 mm 0.26 in6.6 mm 0.37 in9.4 mm
05:16 PM 46.9°F8.3°C 37.2°F2.9°C 69% 4.0 mph N6.4 kmh N 9.0 mph14.5 kmh 29.47 in998.0 mb 0.06 in1.5 mm 0.09 in2.3 mm 0.38 in9.7 mm
05:23 PM 46.6°F8.1°C 36.7°F2.6°C 68% 8.0 mph N12.9 kmh N 24.0 mph38.6 kmh 29.48 in998.3 mb 0.06 in1.5 mm 0.00 in0.0 mm 0.39 in9.9 mm
05:31 PM 45.9°F7.7°C 35.8°F2.1°C 68% 9.0 mph N14.5 kmh N 24.0 mph38.6 kmh 29.49 in998.6 mb 0.07 in1.8 mm 0.08 in2.0 mm 0.39 in9.9 mm
05:37 PM 45.3°F7.4°C 35.4°F1.9°C 68% 8.0 mph N12.9 kmh N 21.0 mph33.8 kmh 29.49 in998.6 mb 0.07 in1.8 mm 0.00 in0.0 mm 0.39 in9.9 mm
05:44 PM 45.1°F7.3°C 35.2°F1.8°C 68% 8.0 mph N12.9 kmh N 20.0 mph32.2 kmh 29.50 in999.0 mb 0.07 in1.8 mm 0.00 in0.0 mm 0.39 in9.9 mm
05:51 PM 44.8°F7.1°C 34.7°F1.5°C 68% 9.0 mph N14.5 kmh N 20.0 mph32.2 kmh 29.50 in999.0 mb 0.06 in1.5 mm 0.00 in0.0 mm 0.39 in9.9 mm
05:58 PM 44.2°F6.8°C 34.7°F1.5°C 69% 9.0 mph N14.5 kmh N 21.0 mph33.8 kmh 29.50 in999.0 mb 0.06 in1.5 mm 0.00 in0.0 mm 0.39 in9.9 mm
06:05 PM 44.2°F6.8°C 34.7°F1.5°C 69% 8.0 mph N12.9 kmh N 21.0 mph33.8 kmh 29.50 in999.0 mb 0.04 in1.0 mm 0.00 in0.0 mm 0.39 in9.9 mm
06:12 PM 44.2°F6.8°C 34.3°F1.3°C 68% 8.0 mph N12.9 kmh N 17.0 mph27.4 kmh 29.51 in999.3 mb 0.02 in0.5 mm 0.00 in0.0 mm 0.39 in9.9 mm
06:19 PM 44.2°F6.8°C 34.3°F1.3°C 68% 7.0 mph N11.3 kmh N 20.0 mph32.2 kmh 29.51 in999.3 mb 0.01 in0.3 mm 0.00 in0.0 mm 0.39 in9.9 mm
06:26 PM 44.2°F6.8°C 34.3°F1.3°C 68% 7.0 mph N11.3 kmh N 20.0 mph32.2 kmh 29.51 in999.3 mb 0.01 in0.3 mm 0.00 in0.0 mm 0.40 in10.2 mm
06:33 PM 44.2°F6.8°C 34.3°F1.3°C 68% 8.0 mph N12.9 kmh N 17.0 mph27.4 kmh 29.52 in999.7 mb 0.01 in0.3 mm 0.00 in0.0 mm 0.40 in10.2 mm
06:40 PM 44.2°F6.8°C 34.0°F1.1°C 67% 7.0 mph N11.3 kmh N 16.0 mph25.7 kmh 29.52 in999.7 mb 0.01 in0.3 mm 0.00 in0.0 mm 0.40 in10.2 mm
06:47 PM 44.2°F6.8°C 34.0°F1.1°C 67% 7.0 mph N11.3 kmh N 17.0 mph27.4 kmh 29.52 in999.7 mb 0.01 in0.3 mm 0.00 in0.0 mm 0.40 in10.2 mm
06:54 PM 44.1°F6.7°C 33.8°F1.0°C 67% 7.0 mph N11.3 kmh N 16.0 mph25.7 kmh 29.52 in999.7 mb 0.01 in0.3 mm 0.00 in0.0 mm 0.40 in10.2 mm
07:01 PM 44.2°F6.8°C 34.0°F1.1°C 67% 7.0 mph N11.3 kmh N 20.0 mph32.2 kmh 29.52 in999.7 mb 0.01 in0.3 mm 0.00 in0.0 mm 0.40 in10.2 mm
07:08 PM 44.1°F6.7°C 33.8°F1.0°C 67% 8.0 mph N12.9 kmh N 20.0 mph32.2 kmh 29.53 in1000.0 mb 0.01 in0.3 mm 0.00 in0.0 mm 0.40 in10.2 mm
07:15 PM 44.1°F6.7°C 33.8°F1.0°C 67% 7.0 mph N11.3 kmh N 16.0 mph25.7 kmh 29.53 in1000.0 mb 0.01 in0.3 mm 0.00 in0.0 mm 0.40 in10.2 mm
07:22 PM 44.1°F6.7°C 33.8°F1.0°C 67% 7.0 mph N11.3 kmh N 19.0 mph30.6 kmh 29.53 in1000.0 mb 0.00 in0.0 mm 0.00 in0.0 mm 0.40 in10.2 mm
07:29 PM 44.1°F6.7°C 33.4°F0.8°C 66% 8.0 mph N12.9 kmh N 17.0 mph27.4 kmh 29.53 in1000.0 mb 0.00 in0.0 mm 0.00 in0.0 mm 0.40 in10.2 mm
07:36 PM 43.9°F6.6°C 33.3°F0.7°C 66% 8.0 mph N12.9 kmh N 17.0 mph27.4 kmh 29.54 in1000.3 mb 0.00 in0.0 mm 0.00 in0.0 mm 0.40 in10.2 mm
07:43 PM 43.9°F6.6°C 33.3°F0.7°C 66% 8.0 mph N12.9 kmh N 17.0 mph27.4 kmh 29.54 in1000.3 mb 0.00 in0.0 mm 0.00 in0.0 mm 0.40 in10.2 mm
07:50 PM 43.7°F6.5°C 33.1°F0.6°C 66% 7.0 mph N11.3 kmh N 25.0 mph40.2 kmh 29.54 in1000.3 mb 0.00 in0.0 mm 0.00 in0.0 mm 0.40 in10.2 mm
07:57 PM 43.7°F6.5°C 32.7°F0.4°C 65% 8.0 mph N12.9 kmh N 25.0 mph40.2 kmh 29.54 in1000.3 mb 0.00 in0.0 mm 0.00 in0.0 mm 0.40 in10.2 mm
08:04 PM 43.7°F6.5°C 32.7°F0.4°C 65% 9.0 mph N14.5 kmh N 25.0 mph40.2 kmh 29.54 in1000.3 mb 0.00 in0.0 mm 0.00 in0.0 mm 0.40 in10.2 mm
08:11 PM 43.7°F6.5°C 32.7°F0.4°C 65% 8.0 mph N12.9 kmh N 20.0 mph32.2 kmh 29.54 in1000.3 mb 0.00 in0.0 mm 0.00 in0.0 mm 0.40 in10.2 mm
08:18 PM 43.5°F6.4°C 32.5°F0.3°C 65% 8.0 mph N12.9 kmh N 23.0 mph37.0 kmh 29.54 in1000.3 mb 0.00 in0.0 mm 0.00 in0.0 mm 0.40 in10.2 mm
08:25 PM 43.3°F6.3°C 32.4°F0.2°C 65% 8.0 mph N12.9 kmh N 17.0 mph27.4 kmh 29.54 in1000.3 mb 0.01 in0.3 mm 0.09 in2.3 mm 0.41 in10.4 mm
08:32 PM 43.3°F6.3°C 32.7°F0.4°C 66% 8.0 mph N12.9 kmh N 25.0 mph40.2 kmh 29.54 in1000.3 mb 0.01 in0.3 mm 0.00 in0.0 mm 0.41 in10.4 mm
08:39 PM 43.3°F6.3°C 32.7°F0.4°C 66% 8.0 mph N12.9 kmh N 25.0 mph40.2 kmh 29.54 in1000.3 mb 0.01 in0.3 mm 0.00 in0.0 mm 0.41 in10.4 mm
08:46 PM 43.3°F6.3°C 32.7°F0.4°C 66% 8.0 mph N12.9 kmh N 19.0 mph30.6 kmh 29.54 in1000.3 mb 0.01 in0.3 mm 0.00 in0.0 mm 0.41 in10.4 mm
08:53 PM 43.2°F6.2°C 32.9°F0.5°C 67% 8.0 mph N12.9 kmh N 17.0 mph27.4 kmh 29.54 in1000.3 mb 0.02 in0.5 mm 0.09 in2.3 mm 0.42 in10.7 mm
09:00 PM 43.2°F6.2°C 32.9°F0.5°C 67% 8.0 mph N12.9 kmh N 21.0 mph33.8 kmh 29.54 in1000.3 mb 0.02 in0.5 mm 0.00 in0.0 mm 0.42 in10.7 mm
09:07 PM 43.2°F6.2°C 32.9°F0.5°C 67% 9.0 mph N14.5 kmh N 21.0 mph33.8 kmh 29.55 in1000.7 mb 0.02 in0.5 mm 0.00 in0.0 mm 0.43 in10.9 mm
09:14 PM 43.2°F6.2°C 32.9°F0.5°C 67% 7.0 mph N11.3 kmh N 15.0 mph24.1 kmh 29.54 in1000.3 mb 0.02 in0.5 mm 0.00 in0.0 mm 0.43 in10.9 mm
09:21 PM 43.2°F6.2°C 32.9°F0.5°C 67% 8.0 mph N12.9 kmh N 19.0 mph30.6 kmh 29.54 in1000.3 mb 0.02 in0.5 mm 0.00 in0.0 mm 0.43 in10.9 mm
09:28 PM 43.0°F6.1°C 32.7°F0.4°C 67% 9.0 mph N14.5 kmh N 23.0 mph37.0 kmh 29.54 in1000.3 mb 0.02 in0.5 mm 0.00 in0.0 mm 0.43 in10.9 mm
09:35 PM 43.0°F6.1°C 32.7°F0.4°C 67% 8.0 mph N12.9 kmh N 20.0 mph32.2 kmh 29.54 in1000.3 mb 0.02 in0.5 mm 0.00 in0.0 mm 0.43 in10.9 mm
09:42 PM 43.0°F6.1°C 33.1°F0.6°C 68% 8.0 mph N12.9 kmh N 20.0 mph32.2 kmh 29.54 in1000.3 mb 0.02 in0.5 mm 0.00 in0.0 mm 0.44 in11.2 mm
09:49 PM 42.8°F6.0°C 32.9°F0.5°C 68% 9.0 mph N14.5 kmh N 27.0 mph43.5 kmh 29.54 in1000.3 mb 0.03 in0.8 mm 0.09 in2.3 mm 0.44 in11.2 mm
09:56 PM 42.8°F6.0°C 32.5°F0.3°C 67% 11.0 mph N17.7 kmh N 27.0 mph43.5 kmh 29.54 in1000.3 mb 0.02 in0.5 mm 0.00 in0.0 mm 0.44 in11.2 mm
10:03 PM 42.6°F5.9°C 32.9°F0.5°C 68% 9.0 mph N14.5 kmh N 23.0 mph37.0 kmh 29.54 in1000.3 mb 0.03 in0.8 mm 0.01 in0.3 mm 0.45 in11.4 mm
10:10 PM 42.6°F5.9°C 32.9°F0.5°C 68% 9.0 mph N14.5 kmh N 23.0 mph37.0 kmh 29.54 in1000.3 mb 0.02 in0.5 mm 0.00 in0.0 mm 0.45 in11.4 mm
10:17 PM 42.8°F6.0°C 32.9°F0.5°C 68% 9.0 mph N14.5 kmh N 23.0 mph37.0 kmh 29.54 in1000.3 mb 0.03 in0.8 mm 0.09 in2.3 mm 0.46 in11.7 mm
10:24 PM 42.8°F6.0°C 32.9°F0.5°C 68% 9.0 mph N14.5 kmh N 21.0 mph33.8 kmh 29.54 in1000.3 mb 0.04 in1.0 mm 0.09 in2.3 mm 0.46 in11.7 mm
10:31 PM 42.6°F5.9°C 32.9°F0.5°C 68% 11.0 mph N17.7 kmh N 23.0 mph37.0 kmh 29.54 in1000.3 mb 0.05 in1.3 mm 0.09 in2.3 mm 0.48 in12.2 mm
10:38 PM 42.6°F5.9°C 32.7°F0.4°C 68% 11.0 mph N17.7 kmh N 28.0 mph45.1 kmh 29.55 in1000.7 mb 0.06 in1.5 mm 0.09 in2.3 mm 0.49 in12.4 mm
10:45 PM 42.6°F5.9°C 33.1°F0.6°C 69% 9.0 mph N14.5 kmh N 21.0 mph33.8 kmh 29.54 in1000.3 mb 0.06 in1.5 mm 0.00 in0.0 mm 0.50 in12.7 mm
10:52 PM 42.6°F5.9°C 33.1°F0.6°C 69% 11.0 mph N17.7 kmh N 24.0 mph38.6 kmh 29.54 in1000.3 mb 0.06 in1.5 mm 0.00 in0.0 mm 0.50 in12.7 mm
10:59 PM 42.6°F5.9°C 33.1°F0.6°C 69% 9.0 mph N14.5 kmh N 29.0 mph46.7 kmh 29.54 in1000.3 mb 0.08 in2.0 mm 0.17 in4.3 mm 0.52 in13.2 mm
11:06 PM 42.6°F5.9°C 33.1°F0.6°C 69% 8.0 mph N12.9 kmh N 19.0 mph30.6 kmh 29.55 in1000.7 mb 0.07 in1.8 mm 0.00 in0.0 mm 0.43 in10.9 mm
11:13 PM 42.8°F6.0°C 33.3°F0.7°C 69% 9.0 mph N14.5 kmh N 20.0 mph32.2 kmh 29.55 in1000.7 mb 0.07 in1.8 mm 0.00 in0.0 mm 0.01 in0.3 mm
11:20 PM 42.6°F5.9°C 33.1°F0.6°C 69% 8.0 mph N12.9 kmh N 25.0 mph40.2 kmh 29.55 in1000.7 mb 0.08 in2.0 mm 0.09 in2.3 mm 0.02 in0.5 mm
11:27 PM 42.6°F5.9°C 33.1°F0.6°C 69% 9.0 mph N14.5 kmh N 25.0 mph40.2 kmh 29.55 in1000.7 mb 0.08 in2.0 mm 0.00 in0.0 mm 0.03 in0.8 mm
11:34 PM 42.4°F5.8°C 33.1°F0.6°C 69% 8.0 mph N12.9 kmh N 20.0 mph32.2 kmh 29.55 in1000.7 mb 0.08 in2.0 mm 0.00 in0.0 mm 0.04 in1.0 mm
11:41 PM 42.4°F5.8°C 32.9°F0.5°C 69% 9.0 mph N14.5 kmh N 21.0 mph33.8 kmh 29.55 in1000.7 mb 0.08 in2.0 mm 0.00 in0.0 mm 0.05 in1.3 mm
11:48 PM 42.4°F5.8°C 32.9°F0.5°C 69% 11.0 mph N17.7 kmh N 23.0 mph37.0 kmh 29.55 in1000.7 mb 0.07 in1.8 mm 0.00 in0.0 mm 0.06 in1.5 mm
11:55 PM 42.3°F5.7°C 32.9°F0.5°C 69% 11.0 mph N17.7 kmh N 23.0 mph37.0 kmh 29.55 in1000.7 mb 0.06 in1.5 mm 0.00 in0.0 mm 0.06 in1.5 mm